Αρχική σελίδα
METAR-TAF:

METAR-TAF

Αεροδρόμια :

Μάλτα, Μάλτα

γεωγραφικό πλάτος: 35-51N, γεωγραφικό μήκος: 014-29E, υψόμετρο: 91 μ

Παρών καιρός

Η αναφορά έγινε 21 λεπτά πριν, στις 23:45 UTC
Άνεμος 4 kt από
Θερμοκρασία 25°C
Υγρασία 94%
Πίεση 1013 hPa
Ορατότητα 10 χλμ και άνω
Λίγα νέφη σε ύψος 1900 πόδια

METAR: LMML 222345Z 32004KT 9999 FEW019 25/24 Q1013 NOSIG

Χρόνος: 02:06 (00:06 UTC)

Πρόγνωση Καιρού

Η αναφορά έγινε 1 ώρα και 6 λεπτά πριν, στις 23:00 UTC
Η πρόγνωση ισχύει από τις 23 στις 00 UTC έως τις 23 στις 24 UTC
Άνεμος 10 kt από Β/BΔ
Ορατότητα 10 χλμ και άνω
Λίγα νέφη σε ύψος 2000 πόδια
Καθιστάμενος
από 23 στις 09 UTC έως τις 23 στις 12 UTC
Άνεμος 20 kt από
Προσωρινά
από 23 στις 12 UTC έως τις 23 στις 24 UTC
Άνεμος 20 kt από με ριπές μέχρι 32 kt

TAF: LMML 222300Z 2300/2324 33010KT 9999 FEW020 BECMG 2309/2312 31020KT TEMPO 2312/2324 31020G32KT

Μετεωρολογικές αναφορές και προγνώσεις για περισσότερα από 4000 αεροδρόμια (δελτία METAR και TAF).

Οι διαθέσιμοι σταθμοί απεικονίζονται στο χάρτη με κίτρινες και κόκκινες κουκκίδες.

Μετακινήστε το ποντίκι πάνω από τις κουκκίδες για να δείτε το όνομα του σταθμού.

Στη συνέχεια, κάντε κλικ για να δείτε τις μετεωρολογικές αναφορές και τις προγνώσεις καιρού.

Για να αλλάξετε το χάρτη: κάντε κλικ στα πράσινα κουμπιά με τον μαύρο σταυρό για να ζουμάρετε, στο πράσινο κουμπί με την παύλα για να αφαιρέσετε το ζουμ ή στα πράσινα βέλη για να αντιπαραβάλλετε χάρτες.


METAR-TAF: